EZY89AL LPPT-EGHH
Flight info
| Callsign | EZY89AL |
|---|---|
| Flight time | N/A |
| Altitude | 38000 |
| Route | IXIDA1N IXIDA DCT TURON P600 STG N728 KORUL DCT LELNA DCT THRED THRED1S |
| Aircraft | A320/M-V/N |
Departure
| Time | N/A |
|---|---|
| Airport | Lisbon Humberto Delgado Airport (LPPT) |
Arrival
| Time | 2026-05-04 19:41 |
|---|---|
| Airport | Bournemouth Airport (EGHH) |
| Time | Latitude | Longitude | Altitude | Speed | Heading |
|---|---|---|---|---|---|
| 2026-05-04 19:15 | 49.49523 | -2.61361 | 38017 ft | 484 kts | 34° |
| 2026-05-04 19:15 | 49.52322 | -2.58477 | 38009 ft | 484 kts | 34° |
| 2026-05-04 19:16 | 49.57951 | -2.52738 | 38040 ft | 483 kts | 29° |
| 2026-05-04 19:16 | 49.60750 | -2.50017 | 38472 ft | 474 kts | 32° |
| 2026-05-04 19:16 | 49.63513 | -2.47414 | 39162 ft | 461 kts | 33° |
| 2026-05-04 19:16 | 49.66215 | -2.44660 | 38462 ft | 467 kts | 35° |
| 2026-05-04 19:17 | 49.68891 | -2.41732 | 38093 ft | 473 kts | 36° |
| 2026-05-04 19:17 | 49.74265 | -2.35773 | 37576 ft | 482 kts | 36° |
| 2026-05-04 19:17 | 49.77012 | -2.32814 | 36929 ft | 480 kts | 35° |
| 2026-05-04 19:18 | 49.79761 | -2.29920 | 36338 ft | 476 kts | 34° |
| 2026-05-04 19:18 | 49.82512 | -2.27070 | 35815 ft | 473 kts | 34° |
| 2026-05-04 19:18 | 49.85263 | -2.24234 | 35184 ft | 474 kts | 35° |
| 2026-05-04 19:18 | 49.87982 | -2.21421 | 34588 ft | 475 kts | 35° |
| 2026-05-04 19:19 | 49.90733 | -2.18560 | 33999 ft | 477 kts | 36° |
| 2026-05-04 19:19 | 49.93491 | -2.15672 | 33292 ft | 478 kts | 36° |
| 2026-05-04 19:19 | 49.96252 | -2.12764 | 32609 ft | 479 kts | 36° |
| 2026-05-04 19:19 | 49.99060 | -2.09960 | 31942 ft | 481 kts | 31° |
| 2026-05-04 19:20 | 50.02004 | -2.07451 | 31291 ft | 483 kts | 31° |
| 2026-05-04 19:20 | 50.04959 | -2.04935 | 30667 ft | 486 kts | 31° |
| 2026-05-04 19:20 | 50.07906 | -2.02427 | 30053 ft | 489 kts | 31° |
| 2026-05-04 19:20 | 50.10911 | -1.99869 | 29332 ft | 491 kts | 31° |
| 2026-05-04 19:21 | 50.13910 | -1.97314 | 28624 ft | 492 kts | 31° |
| 2026-05-04 19:21 | 50.16926 | -1.94744 | 27929 ft | 492 kts | 31° |
| 2026-05-04 19:21 | 50.19896 | -1.92209 | 27260 ft | 491 kts | 31° |
| 2026-05-04 19:21 | 50.22902 | -1.89638 | 26602 ft | 490 kts | 31° |
| 2026-05-04 19:22 | 50.25896 | -1.87076 | 25963 ft | 490 kts | 31° |
| 2026-05-04 19:22 | 50.28892 | -1.84505 | 25336 ft | 491 kts | 31° |
| 2026-05-04 19:22 | 50.31892 | -1.81925 | 24683 ft | 491 kts | 31° |
| 2026-05-04 19:22 | 50.34897 | -1.79339 | 24103 ft | 492 kts | 31° |
| 2026-05-04 19:23 | 50.37898 | -1.76749 | 23504 ft | 492 kts | 31° |
| 2026-05-04 19:23 | 50.40858 | -1.74190 | 22813 ft | 490 kts | 31° |
| 2026-05-04 19:23 | 50.43834 | -1.71614 | 22131 ft | 482 kts | 31° |
| 2026-05-04 19:23 | 50.46755 | -1.69083 | 21471 ft | 475 kts | 31° |
| 2026-05-04 19:24 | 50.49655 | -1.66601 | 20827 ft | 471 kts | 29° |
| 2026-05-04 19:24 | 50.52536 | -1.64329 | 20200 ft | 466 kts | 27° |
| 2026-05-04 19:24 | 50.55464 | -1.62215 | 19578 ft | 461 kts | 25° |
| 2026-05-04 19:24 | 50.58395 | -1.60231 | 18964 ft | 456 kts | 24° |
| 2026-05-04 19:25 | 50.61308 | -1.58315 | 18387 ft | 451 kts | 24° |
| 2026-05-04 19:25 | 50.64292 | -1.56850 | 17706 ft | 448 kts | 9° |
| 2026-05-04 19:25 | 50.67370 | -1.57019 | 16893 ft | 437 kts | 347° |
| 2026-05-04 19:25 | 50.70103 | -1.58868 | 15991 ft | 420 kts | 325° |
| 2026-05-04 19:26 | 50.72075 | -1.62043 | 15126 ft | 404 kts | 302° |
| 2026-05-04 19:26 | 50.73066 | -1.66073 | 14274 ft | 389 kts | 277° |
| 2026-05-04 19:26 | 50.73088 | -1.70262 | 13396 ft | 377 kts | 266° |
| 2026-05-04 19:26 | 50.72944 | -1.74343 | 12471 ft | 367 kts | 265° |
| 2026-05-04 19:27 | 50.72803 | -1.78315 | 11591 ft | 359 kts | 266° |
| 2026-05-04 19:27 | 50.72653 | -1.82110 | 11377 ft | 332 kts | 262° |
| 2026-05-04 19:27 | 50.72008 | -1.85436 | 11188 ft | 309 kts | 239° |
| 2026-05-04 19:27 | 50.70616 | -1.87921 | 10946 ft | 299 kts | 213° |
| 2026-05-04 19:28 | 50.68743 | -1.89176 | 10696 ft | 291 kts | 188° |
| 2026-05-04 19:28 | 50.66749 | -1.89024 | 10337 ft | 288 kts | 162° |
| 2026-05-04 19:28 | 50.64998 | -1.87549 | 9974 ft | 285 kts | 143° |
| 2026-05-04 19:28 | 50.63457 | -1.85660 | 9576 ft | 284 kts | 141° |
| 2026-05-04 19:29 | 50.61911 | -1.83712 | 9186 ft | 284 kts | 141° |
| 2026-05-04 19:29 | 50.60374 | -1.81778 | 8792 ft | 282 kts | 141° |
| 2026-05-04 19:29 | 50.58837 | -1.79844 | 8402 ft | 281 kts | 141° |
| 2026-05-04 19:29 | 50.57314 | -1.77926 | 8023 ft | 279 kts | 141° |
| 2026-05-04 19:30 | 50.55817 | -1.76042 | 7616 ft | 278 kts | 141° |
| 2026-05-04 19:30 | 50.54301 | -1.74133 | 7172 ft | 279 kts | 141° |
| 2026-05-04 19:30 | 50.52797 | -1.72242 | 6997 ft | 274 kts | 141° |
| 2026-05-04 19:30 | 50.51303 | -1.70366 | 7006 ft | 274 kts | 141° |
| 2026-05-04 19:31 | 50.49807 | -1.68488 | 7024 ft | 274 kts | 141° |
| 2026-05-04 19:31 | 50.48330 | -1.66634 | 7007 ft | 275 kts | 141° |
| 2026-05-04 19:31 | 50.46864 | -1.64701 | 7003 ft | 274 kts | 132° |
| 2026-05-04 19:31 | 50.45927 | -1.62131 | 7007 ft | 273 kts | 104° |
| 2026-05-04 19:32 | 50.45867 | -1.59185 | 7007 ft | 272 kts | 76° |
| 2026-05-04 19:32 | 50.46684 | -1.56562 | 7006 ft | 273 kts | 49° |
| 2026-05-04 19:32 | 50.48209 | -1.54819 | 7006 ft | 274 kts | 21° |
| 2026-05-04 19:32 | 50.50087 | -1.54292 | 7007 ft | 276 kts | 3° |
| 2026-05-04 19:33 | 50.52011 | -1.54220 | 7007 ft | 276 kts | 1° |
| 2026-05-04 19:33 | 50.53939 | -1.54198 | 7007 ft | 276 kts | 0° |
| 2026-05-04 19:33 | 50.55799 | -1.54727 | 7007 ft | 277 kts | 336° |
| 2026-05-04 19:33 | 50.57345 | -1.56494 | 6910 ft | 276 kts | 315° |
| 2026-05-04 19:34 | 50.58638 | -1.58732 | 6498 ft | 275 kts | 311° |
| 2026-05-04 19:34 | 50.59886 | -1.61013 | 6087 ft | 274 kts | 311° |
| 2026-05-04 19:34 | 50.61119 | -1.63288 | 5693 ft | 272 kts | 311° |
| 2026-05-04 19:34 | 50.62343 | -1.65562 | 5290 ft | 270 kts | 311° |
| 2026-05-04 19:35 | 50.63538 | -1.67794 | 4923 ft | 268 kts | 311° |
| 2026-05-04 19:35 | 50.64734 | -1.70037 | 4532 ft | 266 kts | 310° |
| 2026-05-04 19:35 | 50.65919 | -1.72269 | 4127 ft | 264 kts | 311° |
| 2026-05-04 19:35 | 50.67092 | -1.74499 | 4026 ft | 264 kts | 310° |
| 2026-05-04 19:36 | 50.68273 | -1.76734 | 4035 ft | 265 kts | 310° |
| 2026-05-04 19:36 | 50.69434 | -1.78947 | 4037 ft | 266 kts | 309° |
| 2026-05-04 19:36 | 50.70265 | -1.81533 | 4036 ft | 267 kts | 284° |
| 2026-05-04 19:36 | 50.70530 | -1.84446 | 4037 ft | 268 kts | 276° |
| 2026-05-04 19:37 | 50.70705 | -1.87386 | 4034 ft | 268 kts | 276° |
| 2026-05-04 19:37 | 50.70864 | -1.90339 | 4017 ft | 269 kts | 276° |
| 2026-05-04 19:37 | 50.71019 | -1.93193 | 4012 ft | 252 kts | 275° |
| 2026-05-04 19:37 | 50.71170 | -1.95852 | 4015 ft | 235 kts | 277° |
| 2026-05-04 19:38 | 50.71687 | -1.98171 | 4009 ft | 219 kts | 309° |
| 2026-05-04 19:38 | 50.72843 | -1.99513 | 4022 ft | 200 kts | 346° |
| 2026-05-04 19:38 | 50.74126 | -1.99802 | 3995 ft | 180 kts | 357° |
| 2026-05-04 19:38 | 50.75329 | -1.99662 | 3690 ft | 170 kts | 22° |
| 2026-05-04 19:39 | 50.76120 | -1.98390 | 3191 ft | 171 kts | 71° |
| 2026-05-04 19:39 | 50.76163 | -1.96469 | 2470 ft | 181 kts | 90° |
| 2026-05-04 19:39 | 50.76138 | -1.94516 | 2002 ft | 170 kts | 79° |
| 2026-05-04 19:39 | 50.76564 | -1.92833 | 1483 ft | 162 kts | 66° |
| 2026-05-04 19:40 | 50.76850 | -1.91127 | 941 ft | 158 kts | 78° |
| 2026-05-04 19:40 | 50.77102 | -1.89501 | 605 ft | 147 kts | 73° |
| 2026-05-04 19:40 | 50.77392 | -1.88006 | 394 ft | 140 kts | 76° |
| 2026-05-04 19:40 | 50.77633 | -1.86525 | 206 ft | 140 kts | 78° |
| 2026-05-04 19:41 | 50.77871 | -1.85089 | 61 ft | 135 kts | 77° |
| 2026-05-04 19:41 | 50.78080 | -1.83801 | 44 ft | 97 kts | 74° |
| 2026-05-04 19:41 | 50.78189 | -1.83149 | 44 ft | 38 kts | 75° |
| 2026-05-04 19:41 | 50.78183 | -1.83045 | 44 ft | 7 kts | 160° |
| 2026-05-04 19:42 | 50.78129 | -1.83087 | 43 ft | 10 kts | 230° |
| 2026-05-04 19:42 | 50.78090 | -1.83172 | 42 ft | 9 kts | 234° |
| 2026-05-04 19:42 | 50.78057 | -1.83247 | 42 ft | 7 kts | 240° |
| 2026-05-04 19:42 | 50.78027 | -1.83342 | 43 ft | 13 kts | 244° |
| 2026-05-04 19:43 | 50.77986 | -1.83454 | 43 ft | 11 kts | 227° |
| 2026-05-04 19:43 | 50.77909 | -1.83485 | 41 ft | 13 kts | 175° |
| 2026-05-04 19:43 | 50.77825 | -1.83470 | 43 ft | 7 kts | 176° |
| 2026-05-04 19:43 | 50.77803 | -1.83431 | 43 ft | 4 kts | 88° |
| 2026-05-04 19:44 | 50.77805 | -1.83399 | 42 ft | 3 kts | 87° |
| 2026-05-04 19:44 | 50.77806 | -1.83369 | 42 ft | 0 kts | 86° |